Time;durP1;ratioP1;P1;durP2;ratioP2;P2;SDS_P1;SDS_P2;PMS_P1;PMS_P2;Temp;Humidity;BMP_temperature;BMP_pressure;BME280_temperature;BME280_humidity;BME280_pressure;Samples;Min_cycle;Max_cycle;Signal;HPM_P1;HPM_P2
2021/10/29 00:00:12;;;;;;;17.35;11.28;;;;;;;14.11;62.28;101589.72;1744386;80;21050;-58
2021/10/29 00:02:39;;;;;;;22.20;11.93;;;;;;;14.10;62.30;101590.66;1746898;80;21101;-58
2021/10/29 00:05:06;;;;;;;18.50;12.15;;;;;;;14.09;62.35;101589.83;1748260;80;22230;-58
2021/10/29 00:07:34;;;;;;;16.80;10.75;;;;;;;14.08;62.33;101583.33;1746621;80;21522;-58
2021/10/29 00:10:00;;;;;;;18.90;12.58;;;;;;;14.07;62.36;101589.56;1749911;80;21074;-58
2021/10/29 00:12:27;;;;;;;15.58;11.78;;;;;;;14.05;62.38;101588.84;1726516;80;21062;-58
2021/10/29 00:14:53;;;;;;;17.32;10.95;;;;;;;14.03;62.37;101588.12;1728988;80;21075;-58
2021/10/29 00:17:20;;;;;;;16.50;11.53;;;;;;;14.02;62.39;101597.02;1750791;80;21230;-58
2021/10/29 00:19:47;;;;;;;16.37;12.37;;;;;;;13.97;62.49;101589.91;1750577;80;21035;-59
2021/10/29 00:22:14;;;;;;;17.00;10.48;;;;;;;13.90;62.61;101587.73;1750924;80;21114;-58
2021/10/29 00:24:41;;;;;;;14.55;9.88;;;;;;;13.87;62.68;101589.28;1749856;80;21535;-59
2021/10/29 00:27:07;;;;;;;17.35;9.98;;;;;;;13.91;62.67;101589.89;1752712;80;21089;-59
2021/10/29 00:29:34;;;;;;;14.00;9.95;;;;;;;13.94;62.74;101584.38;1747816;80;21950;-58
2021/10/29 00:32:00;;;;;;;17.73;10.93;;;;;;;13.97;62.78;101587.25;1729694;81;21062;-58
2021/10/29 00:34:26;;;;;;;17.23;11.45;;;;;;;13.93;62.82;101584.83;1726821;80;21086;-58
2021/10/29 00:36:53;;;;;;;17.82;11.43;;;;;;;13.91;62.83;101576.66;1746976;80;21520;-58
2021/10/29 00:39:20;;;;;;;19.95;12.90;;;;;;;13.87;62.84;101583.13;1750099;80;21094;-58
2021/10/29 00:41:46;;;;;;;15.72;10.98;;;;;;;13.84;63.11;101587.35;1744436;80;21486;-58
2021/10/29 00:44:12;;;;;;;16.57;10.82;;;;;;;13.84;63.07;101584.70;1750100;80;21042;-58
2021/10/29 00:46:39;;;;;;;16.73;10.55;;;;;;;13.79;63.14;101581.07;1728094;81;21058;-58
2021/10/29 00:49:05;;;;;;;14.98;9.85;;;;;;;13.74;63.18;101577.92;1728413;80;21380;-58
2021/10/29 00:51:33;;;;;;;19.90;12.30;;;;;;;13.66;63.24;101582.45;1747730;80;21050;-58
2021/10/29 00:53:59;;;;;;;17.95;10.65;;;;;;;13.59;63.50;101576.42;1752472;80;21818;-58
2021/10/29 00:56:26;;;;;;;19.02;10.55;;;;;;;13.64;63.47;101591.47;1727920;80;21042;-58
2021/10/29 00:58:52;;;;;;;16.15;11.05;;;;;;;13.69;63.25;101589.33;1750737;80;21054;-58
2021/10/29 01:01:19;;;;;;;17.15;11.90;;;;;;;13.73;63.20;101590.78;1748672;80;21527;-58
2021/10/29 01:03:45;;;;;;;17.73;11.95;;;;;;;13.74;63.21;101592.48;1747850;80;21081;-57
2021/10/29 01:06:12;;;;;;;19.67;13.55;;;;;;;13.72;63.23;101591.75;1731824;80;21993;-59
2021/10/29 01:08:40;;;;;;;20.55;13.60;;;;;;;13.68;63.41;101585.82;1735695;80;21128;-58
2021/10/29 01:11:06;;;;;;;20.70;13.60;;;;;;;13.68;63.60;101587.62;1730831;80;21084;-58
2021/10/29 01:13:34;;;;;;;23.67;14.23;;;;;;;13.69;63.57;101582.72;1721353;80;21083;-58
2021/10/29 01:16:00;;;;;;;23.30;14.55;;;;;;;13.67;63.54;101585.96;1732835;80;21122;-59
2021/10/29 01:18:26;;;;;;;21.10;12.80;;;;;;;13.65;63.56;101585.20;1733931;80;21141;-58
2021/10/29 01:20:55;;;;;;;19.10;12.85;;;;;;;13.61;63.63;101593.85;1730550;80;21515;-59
2021/10/29 01:23:21;;;;;;;20.27;12.70;;;;;;;13.58;63.66;101589.27;1719708;80;21007;-59
2021/10/29 01:25:48;;;;;;;20.23;11.80;;;;;;;13.58;63.64;101586.63;1718141;80;20972;-59
2021/10/29 01:28:15;;;;;;;20.40;12.00;;;;;;;13.63;63.53;101588.45;1736587;80;20976;-59
2021/10/29 01:30:41;;;;;;;17.95;13.22;;;;;;;13.66;63.55;101591.70;1731601;80;21196;-59
2021/10/29 01:33:08;;;;;;;18.67;13.55;;;;;;;13.67;63.58;101591.25;1731843;80;21105;-59
2021/10/29 01:35:34;;;;;;;19.70;13.98;;;;;;;13.66;63.59;101586.91;1725594;80;21035;-59
2021/10/29 01:38:01;;;;;;;19.95;13.65;;;;;;;13.62;63.66;101590.75;1732528;80;21111;-59
2021/10/29 01:40:27;;;;;;;18.50;12.37;;;;;;;13.58;63.67;101590.10;1731925;80;21121;-58
2021/10/29 01:42:54;;;;;;;17.17;12.35;;;;;;;13.56;63.67;101590.22;1732194;80;21144;-59
2021/10/29 01:45:21;;;;;;;17.73;12.33;;;;;;;13.51;63.68;101588.39;1734518;80;21141;-59
2021/10/29 01:47:49;;;;;;;17.95;12.15;;;;;;;13.46;63.76;101594.98;1716582;80;21836;-59
2021/10/29 01:50:15;;;;;;;18.20;12.60;;;;;;;13.38;63.74;101592.87;1734872;80;21117;-59
2021/10/29 01:52:42;;;;;;;17.05;12.58;;;;;;;13.31;63.78;101591.61;1735106;80;21582;-59
2021/10/29 01:55:09;;;;;;;16.48;10.88;;;;;;;13.23;63.78;101593.51;1727283;80;21165;-60
2021/10/29 01:57:35;;;;;;;14.18;10.43;;;;;;;13.20;63.94;101595.87;1735643;80;21023;-59
2021/10/29 02:00:07;;;;;;;14.90;10.38;;;;;;;13.24;63.81;101593.86;1733706;80;21385;-59
2021/10/29 02:02:35;;;;;;;16.65;10.40;;;;;;;13.28;63.87;101590.51;1732814;80;21662;-58
2021/10/29 02:05:02;;;;;;;14.90;9.98;;;;;;;13.30;64.05;101590.78;1736490;80;21024;-58
2021/10/29 02:07:29;;;;;;;15.08;10.40;;;;;;;13.28;64.15;101591.83;1730015;80;21151;-59
2021/10/29 02:09:56;;;;;;;17.00;10.82;;;;;;;13.25;64.05;101590.76;1734802;80;21020;-58
2021/10/29 02:12:22;;;;;;;18.62;11.00;;;;;;;13.19;63.68;101587.57;1734856;80;21094;-57
2021/10/29 02:14:49;;;;;;;16.62;11.55;;;;;;;13.13;63.35;101595.09;1734784;80;22579;-58
2021/10/29 02:17:15;;;;;;;15.78;11.38;;;;;;;13.04;63.42;101595.28;1722736;80;21076;-59
2021/10/29 02:19:41;;;;;;;16.57;10.63;;;;;;;12.95;63.42;101601.23;1720496;80;21058;-58
2021/10/29 02:22:08;;;;;;;16.52;10.98;;;;;;;12.85;63.06;101605.00;1724284;81;21076;-58
2021/10/29 02:24:34;;;;;;;17.75;11.43;;;;;;;12.73;62.82;101607.19;1713998;80;21039;-59
2021/10/29 02:27:03;;;;;;;15.95;10.10;;;;;;;12.59;63.18;101608.11;1722102;80;21125;-58
2021/10/29 02:29:30;;;;;;;17.77;10.50;;;;;;;12.47;63.74;101607.66;1733879;80;21666;-59
2021/10/29 02:31:57;;;;;;;14.03;9.63;;;;;;;12.36;64.22;101614.51;1726217;80;21222;-57
2021/10/29 02:34:23;;;;;;;15.93;10.08;;;;;;;12.36;64.58;101615.00;1697044;83;22302;-58
2021/10/29 02:36:50;;;;;;;14.15;10.23;;;;;;;12.33;64.27;101614.72;1735483;80;21090;-58
2021/10/29 02:39:16;;;;;;;18.25;11.48;;;;;;;12.30;63.92;101615.40;1720565;80;21145;-58
2021/10/29 02:41:43;;;;;;;15.28;9.73;;;;;;;12.20;63.64;101621.77;1727658;80;21055;-58
2021/10/29 02:44:09;;;;;;;14.38;10.23;;;;;;;12.08;63.82;101613.72;1695966;83;22058;-58
2021/10/29 02:46:37;;;;;;;16.55;10.85;;;;;;;11.99;64.00;101613.51;1664418;83;21087;-58
2021/10/29 02:49:05;;;;;;;18.75;11.25;;;;;;;11.90;63.79;101614.91;1732830;80;21098;-58
2021/10/29 02:51:33;;;;;;;16.65;11.03;;;;;;;11.81;63.59;101620.31;1732657;80;21086;-57
2021/10/29 02:54:00;;;;;;;14.70;9.63;;;;;;;11.68;63.62;101612.38;1733998;80;21183;-57
2021/10/29 02:56:26;;;;;;;24.95;11.35;;;;;;;11.60;63.83;101618.62;1732028;80;21220;-57
2021/10/29 02:58:53;;;;;;;16.32;11.73;;;;;;;11.52;63.83;101623.06;1731345;80;21051;-58
2021/10/29 03:01:19;;;;;;;18.35;11.45;;;;;;;11.44;64.18;101625.34;1735971;80;21060;-58
2021/10/29 03:03:46;;;;;;;15.10;10.18;;;;;;;11.37;64.61;101627.16;1735083;80;21052;-57
2021/10/29 03:06:12;;;;;;;13.72;9.80;;;;;;;11.35;64.68;101629.89;1714492;81;21074;-58
2021/10/29 03:08:38;;;;;;;18.12;10.00;;;;;;;11.38;64.65;101631.02;1694371;82;21147;-58
2021/10/29 03:11:05;;;;;;;15.98;10.65;;;;;;;11.43;64.58;101632.02;1730390;80;21517;-59
2021/10/29 03:13:31;;;;;;;15.48;11.50;;;;;;;11.46;64.47;101639.73;1732683;80;21125;-58
2021/10/29 03:15:57;;;;;;;13.98;9.95;;;;;;;11.42;64.60;101640.41;1734274;80;21717;-58
2021/10/29 03:18:24;;;;;;;17.27;10.75;;;;;;;11.45;64.68;101638.06;1719730;80;21039;-59
2021/10/29 03:20:50;;;;;;;16.07;10.48;;;;;;;11.43;64.74;101636.84;1731658;80;21223;-59
2021/10/29 03:23:17;;;;;;;15.72;10.30;;;;;;;11.42;64.84;101635.14;1732019;80;21059;-59
2021/10/29 03:25:45;;;;;;;17.65;11.93;;;;;;;11.42;65.00;101639.58;1725308;80;21149;-59
2021/10/29 03:28:11;;;;;;;16.40;11.70;;;;;;;11.41;64.95;101637.87;1735171;80;21082;-58
2021/10/29 03:30:38;;;;;;;19.98;11.50;;;;;;;11.38;64.88;101633.66;1737469;80;21078;-59
2021/10/29 03:33:05;;;;;;;16.65;10.65;;;;;;;11.34;64.91;101634.77;1733180;80;21155;-61
2021/10/29 03:35:31;;;;;;;16.52;11.80;;;;;;;11.33;65.37;101632.63;1727056;80;21600;-58
2021/10/29 03:43:22;;;;;;;16.93;10.80;;;;;;;11.40;64.65;101637.03;1732507;80;21056;-58
2021/10/29 03:45:54;;;;;;;16.45;10.80;;;;;;;11.36;64.56;101633.36;1728944;80;22579;-58
2021/10/29 03:48:24;;;;;;;18.37;11.15;;;;;;;11.31;64.82;101636.28;1734064;80;21067;-58
2021/10/29 03:51:08;;;;;;;19.80;11.80;;;;;;;11.27;64.91;101636.95;1730462;80;21114;-59
2021/10/29 03:56:18;;;;;;;15.00;10.53;;;;;;;11.18;64.69;101641.50;1717727;80;21522;-57
2021/10/29 03:58:46;;;;;;;15.68;11.28;;;;;;;11.09;64.48;101644.69;1734518;80;21707;-57
2021/10/29 04:01:13;;;;;;;15.55;11.63;;;;;;;11.00;64.30;101648.75;1735607;80;21850;-59
2021/10/29 04:03:39;;;;;;;16.62;10.90;;;;;;;10.91;64.26;101651.48;1729666;80;21799;-59
2021/10/29 04:06:06;;;;;;;18.55;10.80;;;;;;;10.84;64.40;101650.14;1741945;80;20981;-59
2021/10/29 04:08:33;;;;;;;15.60;10.78;;;;;;;10.78;64.62;101647.90;1749004;80;21043;-59
2021/10/29 04:10:59;;;;;;;19.30;9.88;;;;;;;10.75;64.57;101649.39;1745549;80;21114;-59
2021/10/29 04:13:33;;;;;;;13.88;9.78;;;;;;;10.80;64.11;101649.96;1724383;80;21447;-58
2021/10/29 04:15:57;;;;;;;19.12;11.68;;;;;;;10.82;63.95;101654.66;1748611;80;21449;-56
2021/10/29 04:18:25;;;;;;;15.13;9.68;;;;;;;10.81;63.74;101651.67;1751499;80;21059;-56
2021/10/29 04:20:52;;;;;;;20.05;10.90;;;;;;;10.75;64.12;101655.50;1749803;80;21022;-57
2021/10/29 04:23:18;;;;;;;16.85;11.00;;;;;;;10.75;64.70;101654.66;1746186;80;21816;-57
2021/10/29 04:25:45;;;;;;;16.85;11.33;;;;;;;10.76;64.86;101657.20;1744167;80;21050;-56
2021/10/29 04:28:12;;;;;;;16.32;10.95;;;;;;;10.77;64.90;101658.04;1748312;80;21456;-58
2021/10/29 04:30:42;;;;;;;23.12;16.55;;;;;;;10.74;65.26;101662.17;1745351;80;21070;-57
2021/10/29 04:33:07;;;;;;;16.00;10.85;;;;;;;10.69;65.38;101666.42;1752498;80;20976;-57
2021/10/29 04:35:35;;;;;;;14.85;10.85;;;;;;;10.60;65.56;101670.42;1751461;80;21101;-57
2021/10/29 04:38:07;;;;;;;14.07;9.78;;;;;;;10.51;65.66;101673.62;1749848;80;20968;-58
2021/10/29 04:40:35;;;;;;;17.70;10.03;;;;;;;10.50;65.60;101669.28;1722466;80;21641;-59
2021/10/29 04:43:03;;;;;;;18.73;10.58;;;;;;;10.54;65.33;101674.75;1723772;80;21078;-58
2021/10/29 04:45:30;;;;;;;19.90;12.18;;;;;;;10.57;65.34;101685.11;1745669;80;21642;-57
2021/10/29 04:47:57;;;;;;;15.83;9.53;;;;;;;10.59;65.60;101683.23;1746009;80;21061;-59
2021/10/29 04:50:24;;;;;;;17.42;9.28;;;;;;;10.53;65.84;101684.89;1745937;80;21537;-58
2021/10/29 04:52:50;;;;;;;18.00;10.90;;;;;;;10.49;66.02;101683.39;1729436;81;20995;-59
2021/10/29 04:55:16;;;;;;;16.82;10.10;;;;;;;10.44;65.95;101686.77;1746334;80;21153;-59
2021/10/29 04:57:43;;;;;;;16.40;10.50;;;;;;;10.38;65.66;101696.33;1751363;80;21060;-58
2021/10/29 05:00:11;;;;;;;14.18;10.10;;;;;;;10.32;65.56;101696.22;1747238;80;21183;-58
2021/10/29 05:02:38;;;;;;;19.10;11.03;;;;;;;10.27;65.57;101698.69;1750296;80;20991;-57
2021/10/29 05:05:05;;;;;;;14.53;9.88;;;;;;;10.21;65.35;101698.11;1745693;80;21670;-57
2021/10/29 05:07:32;;;;;;;14.28;9.65;;;;;;;10.15;65.22;101693.67;1671050;83;20983;-58
2021/10/29 05:10:01;;;;;;;17.52;10.85;;;;;;;10.07;65.29;101696.75;1695730;83;21098;-57
2021/10/29 05:12:27;;;;;;;13.48;9.68;;;;;;;10.06;65.41;101702.94;1734105;80;21135;-58
2021/10/29 05:14:54;;;;;;;21.17;10.93;;;;;;;10.11;65.49;101698.73;1723897;80;21023;-58
2021/10/29 05:17:21;;;;;;;21.02;12.23;;;;;;;10.15;65.41;101702.39;1735764;80;21820;-59
2021/10/29 05:19:47;;;;;;;18.87;11.83;;;;;;;10.17;65.40;101703.18;1732943;80;21065;-57
2021/10/29 05:22:13;;;;;;;17.05;11.08;;;;;;;10.17;65.61;101707.13;1736052;80;21485;-57
2021/10/29 05:24:40;;;;;;;25.88;12.65;;;;;;;10.14;65.68;101703.83;1732210;80;21219;-59
2021/10/29 05:27:06;;;;;;;56.20;17.05;;;;;;;10.14;65.93;101703.35;1724923;80;21049;-57
2021/10/29 05:29:34;;;;;;;54.58;14.50;;;;;;;10.17;66.16;101705.81;1736231;80;21544;-57
2021/10/29 05:32:02;;;;;;;40.28;13.55;;;;;;;10.22;66.16;101709.02;1733485;80;21446;-58
2021/10/29 05:34:29;;;;;;;49.70;15.13;;;;;;;10.21;66.13;101705.16;1714003;80;21070;-58
2021/10/29 05:36:57;;;;;;;22.60;10.63;;;;;;;10.18;66.21;101712.75;1728231;80;21035;-58
2021/10/29 05:39:25;;;;;;;25.17;11.53;;;;;;;10.17;66.29;101712.39;1733976;80;21055;-57
2021/10/29 05:41:51;;;;;;;30.35;11.50;;;;;;;10.27;66.29;101711.40;1737087;80;21059;-57
2021/10/29 05:44:19;;;;;;;18.37;9.68;;;;;;;10.35;66.09;101714.44;1734521;80;21090;-58
2021/10/29 05:46:46;;;;;;;20.17;10.98;;;;;;;10.40;66.07;101719.44;1724610;80;22329;-58
2021/10/29 05:49:14;;;;;;;25.15;10.25;;;;;;;10.42;66.25;101718.88;1717114;81;22371;-58
2021/10/29 05:51:47;;;;;;;22.25;11.25;;;;;;;10.43;66.18;101724.53;1734072;80;21043;-56
2021/10/29 05:54:38;;;;;;;17.48;10.98;;;;;;;10.47;66.41;101723.88;1732078;80;21569;-57
2021/10/29 05:56:53;;;;;;;22.90;10.78;;;;;;;10.51;66.65;101726.73;1727340;80;21563;-57
2021/10/29 05:59:19;;;;;;;21.48;11.40;;;;;;;10.56;66.47;101729.46;1736092;80;21051;-56
2021/10/29 06:01:46;;;;;;;19.50;11.65;;;;;;;10.57;66.47;101732.48;1720813;80;21296;-57
2021/10/29 06:04:13;;;;;;;15.43;10.72;;;;;;;10.61;66.39;101737.09;1733492;80;21154;-58
2021/10/29 06:06:39;;;;;;;15.28;9.40;;;;;;;10.66;66.38;101738.98;1720245;80;21133;-57
2021/10/29 06:09:06;;;;;;;18.05;10.78;;;;;;;10.78;66.28;101734.78;1735111;80;21090;-57
2021/10/29 06:11:33;;;;;;;14.35;9.98;;;;;;;10.88;66.33;101730.66;1734433;80;21627;-57
2021/10/29 06:13:59;;;;;;;20.68;13.08;;;;;;;10.99;66.29;101736.59;1732083;80;21594;-56
2021/10/29 06:16:26;;;;;;;20.95;12.43;;;;;;;11.09;66.27;101728.98;1736374;80;21056;-58
2021/10/29 06:18:52;;;;;;;26.30;15.35;;;;;;;11.17;66.23;101733.80;1733605;80;21023;-59
2021/10/29 06:21:28;;;;;;;25.27;15.58;;;;;;;11.22;66.52;101738.31;1735099;80;21788;-58
2021/10/29 06:23:59;;;;;;;25.35;15.63;;;;;;;11.31;66.75;101741.23;1730327;80;21140;-57
2021/10/29 06:26:24;;;;;;;26.93;15.63;;;;;;;11.40;66.77;101745.53;1727184;80;21311;-58
2021/10/29 06:28:49;;;;;;;27.77;16.73;;;;;;;11.47;66.63;101742.92;1731019;80;21055;-58
2021/10/29 06:31:16;;;;;;;28.30;16.00;;;;;;;11.51;66.71;101745.24;1735256;80;21074;-57
2021/10/29 06:33:43;;;;;;;20.95;13.30;;;;;;;11.63;66.85;101750.70;1734991;80;21071;-57
2021/10/29 06:36:10;;;;;;;26.80;17.17;;;;;;;11.80;66.86;101747.87;1733722;80;22478;-59
2021/10/29 06:38:41;;;;;;;26.50;17.92;;;;;;;11.95;66.55;101753.13;1733782;80;21222;-58
2021/10/29 06:41:08;;;;;;;44.23;19.87;;;;;;;12.06;66.81;101748.02;1742437;80;21015;-57
2021/10/29 06:43:42;;;;;;;27.85;17.95;;;;;;;12.13;67.22;101754.58;1738037;80;21043;-59
2021/10/29 06:59:51;;;;;;;19.98;13.18;;;;;;;12.77;66.91;101767.11;1720268;80;21094;-55
2021/10/29 07:02:46;;;;;;;18.73;13.25;;;;;;;12.91;66.63;101768.81;1715858;80;21619;-55
2021/10/29 07:05:20;;;;;;;20.35;14.78;;;;;;;12.98;66.11;101766.15;1727729;80;23536;-55
2021/10/29 07:40:19;;;;;;;19.00;14.07;;;;;;;13.47;65.14;101779.96;1700010;82;21564;-57
2021/10/29 07:42:57;;;;;;;18.80;13.45;;;;;;;13.54;65.12;101786.50;1685383;83;21689;-58
2021/10/29 07:45:20;;;;;;;16.75;10.15;;;;;;;13.64;64.98;101791.16;1696271;82;21464;-56
2021/10/29 07:47:46;;;;;;;16.73;11.57;;;;;;;13.78;64.75;101782.23;1696543;82;21115;-58
2021/10/29 07:50:14;;;;;;;22.42;14.73;;;;;;;13.91;64.41;101779.91;1729909;80;21121;-57
2021/10/29 07:52:42;;;;;;;20.30;13.75;;;;;;;14.00;64.32;101782.86;1714930;80;21137;-55
2021/10/29 07:55:10;;;;;;;19.32;13.90;;;;;;;14.08;64.13;101781.83;1735730;80;21289;-55
2021/10/29 07:57:37;;;;;;;20.90;13.45;;;;;;;14.15;63.95;101784.38;1727684;80;21197;-58
2021/10/29 08:00:06;;;;;;;18.50;12.85;;;;;;;14.20;63.63;101779.59;1727913;80;21090;-57
2021/10/29 08:02:33;;;;;;;18.57;12.15;;;;;;;14.23;63.36;101782.03;1718284;81;21075;-57
2021/10/29 08:05:00;;;;;;;17.05;11.48;;;;;;;14.22;63.26;101784.78;1730133;80;21607;-55
2021/10/29 08:07:27;;;;;;;22.13;10.85;;;;;;;14.21;63.30;101787.92;1708021;82;21057;-55
2021/10/29 08:09:53;;;;;;;24.37;10.88;;;;;;;14.26;63.32;101788.42;1706214;82;22884;-57
2021/10/29 08:12:21;;;;;;;19.07;9.98;;;;;;;14.40;63.15;101795.83;1704695;82;21049;-55
2021/10/29 08:14:48;;;;;;;17.82;10.40;;;;;;;14.53;63.07;101795.78;1711429;82;21039;-56
2021/10/29 08:17:15;;;;;;;22.85;12.25;;;;;;;14.65;62.84;101790.91;1710012;82;21749;-55
2021/10/29 08:19:45;;;;;;;17.10;11.75;;;;;;;14.74;62.57;101791.53;1682763;82;21070;-56
2021/10/29 08:22:11;;;;;;;17.77;11.85;;;;;;;14.82;62.38;101797.59;1710389;82;21134;-56
2021/10/29 08:24:38;;;;;;;23.90;10.68;;;;;;;14.90;62.31;101796.53;1699974;82;22896;-56
2021/10/29 08:27:07;;;;;;;19.40;11.15;;;;;;;14.97;62.02;101792.45;1679859;82;21088;-55
2021/10/29 08:29:34;;;;;;;18.98;10.65;;;;;;;15.00;61.77;101800.17;1711239;82;21116;-57
2021/10/29 08:32:01;;;;;;;16.57;11.50;;;;;;;15.02;61.68;101796.91;1685116;82;21723;-57
2021/10/29 08:34:28;;;;;;;15.68;9.55;;;;;;;15.02;61.47;101800.89;1715251;82;21099;-55
2021/10/29 08:36:56;;;;;;;14.47;9.25;;;;;;;15.06;61.42;101801.49;1677067;82;21046;-56
2021/10/29 08:39:23;;;;;;;19.75;11.53;;;;;;;15.16;61.04;101798.53;1710087;82;21618;-56
2021/10/29 08:41:50;;;;;;;15.50;10.68;;;;;;;15.26;60.85;101796.48;1713329;82;21168;-56
2021/10/29 08:44:16;;;;;;;18.95;11.53;;;;;;;15.32;60.70;101802.15;1683415;82;21066;-56
2021/10/29 08:46:43;;;;;;;17.70;12.23;;;;;;;15.36;60.52;101806.23;1683153;82;21266;-57
2021/10/29 08:49:11;;;;;;;17.55;11.97;;;;;;;15.40;60.37;101805.05;1711564;82;21073;-56
2021/10/29 08:51:38;;;;;;;19.98;14.25;;;;;;;15.44;60.39;101796.86;1711242;82;21042;-56
2021/10/29 08:54:05;;;;;;;18.95;13.55;;;;;;;15.52;60.38;101799.77;1712508;82;21695;-56
2021/10/29 08:56:33;;;;;;;19.12;11.88;;;;;;;15.57;60.10;101805.05;1681749;82;21828;-57
2021/10/29 08:59:26;;;;;;;15.90;11.53;;;;;;;15.60;59.94;101802.16;1709422;82;21548;-57
2021/10/29 09:02:27;;;;;;;18.55;12.20;;;;;;;15.64;59.76;101802.77;1685484;82;20986;-54
2021/10/29 09:05:18;;;;;;;18.02;11.08;;;;;;;15.67;59.56;101797.22;1710266;82;21077;-56
2021/10/29 09:11:29;;;;;;;17.77;10.28;;;;;;;15.77;59.31;101794.22;1733250;80;21032;-55
2021/10/29 09:35:30;;;;;;;17.20;9.78;;;;;;;16.21;57.80;101790.27;1736655;80;21047;-57
2021/10/29 09:38:03;;;;;;;13.70;10.55;;;;;;;16.23;57.72;101787.50;1706276;81;21575;-56
2021/10/29 09:41:02;;;;;;;12.25;8.28;;;;;;;16.28;57.74;101794.11;1562015;90;21106;-56
2021/10/29 09:43:32;;;;;;;16.37;10.30;;;;;;;16.38;57.69;101790.71;1551372;89;21004;-57
2021/10/29 09:46:01;;;;;;;19.12;11.18;;;;;;;16.48;57.53;101792.97;1617036;82;21087;-56
2021/10/29 09:48:38;;;;;;;17.90;10.43;;;;;;;16.58;57.04;101780.59;1657669;82;21457;-56
2021/10/29 09:51:05;;;;;;;14.70;9.55;;;;;;;16.70;56.80;101784.04;1672027;82;21402;-57
2021/10/29 09:53:47;;;;;;;18.62;10.78;;;;;;;16.82;56.68;101784.82;1689552;82;21149;-56
2021/10/29 09:58:52;;;;;;;16.12;10.98;;;;;;;16.99;56.03;101782.09;1697121;82;21050;-56
2021/10/29 10:01:25;;;;;;;17.32;10.82;;;;;;;17.01;55.77;101782.80;1671049;82;21122;-57
2021/10/29 10:03:52;;;;;;;14.58;10.30;;;;;;;17.04;55.59;101781.21;1669827;82;21063;-56
2021/10/29 10:06:22;;;;;;;16.60;11.65;;;;;;;17.05;55.46;101785.57;1691956;82;21193;-57
2021/10/29 10:08:57;;;;;;;15.80;10.65;;;;;;;17.02;55.39;101779.17;1667143;83;21946;-56
2021/10/29 10:11:30;;;;;;;17.73;9.85;;;;;;;16.99;55.43;101781.59;1694196;82;21403;-56
2021/10/29 10:13:58;;;;;;;16.57;10.70;;;;;;;16.96;55.56;101783.67;1690050;82;21122;-58
2021/10/29 10:16:27;;;;;;;15.60;10.48;;;;;;;16.90;55.89;101777.91;1689905;82;21090;-55
2021/10/29 10:18:56;;;;;;;17.57;11.83;;;;;;;16.88;56.24;101781.69;1694215;82;21436;-57
2021/10/29 10:21:25;;;;;;;15.58;11.03;;;;;;;16.84;56.29;101788.19;1675271;83;21457;-56
2021/10/29 10:23:54;;;;;;;18.23;12.35;;;;;;;16.85;56.46;101789.42;1677388;83;21071;-57
2021/10/29 10:29:05;;;;;;;20.52;12.10;;;;;;;16.87;56.07;101787.47;1676466;83;21011;-57
2021/10/29 10:43:22;;;;;;;13.80;9.58;;;;;;;16.95;55.49;101779.35;1663858;82;20992;-56
2021/10/29 10:48:46;;;;;;;16.45;9.30;;;;;;;16.89;55.66;101776.25;1690479;82;21896;-56
2021/10/29 10:57:02;;;;;;;10.28;6.75;;;;;;;17.19;54.98;101775.91;1732945;80;21116;-57
2021/10/29 10:59:44;;;;;;;13.65;6.60;;;;;;;17.33;54.54;101778.72;1731004;80;21463;-56
2021/10/29 11:02:56;;;;;;;12.68;6.37;;;;;;;17.40;53.85;101777.67;1730244;80;21072;-56
2021/10/29 11:11:00;;;;;;;11.18;6.00;;;;;;;17.49;52.63;101775.55;1667131;83;21107;-55
2021/10/29 11:13:50;;;;;;;9.88;5.72;;;;;;;17.54;52.58;101781.31;1676144;83;21108;-56
2021/10/29 11:16:24;;;;;;;10.30;6.15;;;;;;;17.55;52.35;101771.03;1724099;80;21051;-56
2021/10/29 11:18:58;;;;;;;9.45;6.42;;;;;;;17.56;52.23;101769.20;1725462;80;21024;-56
2021/10/29 11:21:34;;;;;;;8.20;5.90;;;;;;;17.58;52.18;101771.23;1731555;80;21551;-56
2021/10/29 11:23:58;;;;;;;7.22;4.55;;;;;;;17.64;52.14;101771.54;1706760;82;21045;-56
2021/10/29 11:26:32;;;;;;;8.93;5.20;;;;;;;17.74;51.80;101773.41;1682890;82;21298;-55
2021/10/29 11:29:02;;;;;;;8.68;4.97;;;;;;;17.86;51.29;101764.31;1700448;82;22084;-56
2021/10/29 11:31:38;;;;;;;7.25;4.42;;;;;;;17.95;51.04;101772.83;1676631;82;21066;-56
2021/10/29 11:34:08;;;;;;;8.45;5.25;;;;;;;18.06;50.52;101771.05;1700188;82;21591;-57
2021/10/29 11:36:37;;;;;;;10.58;6.60;;;;;;;18.16;50.21;101766.08;1683777;82;22097;-56
2021/10/29 11:39:10;;;;;;;8.48;5.97;;;;;;;18.27;50.07;101765.09;1705696;82;21118;-56
2021/10/29 11:41:39;;;;;;;7.45;4.42;;;;;;;18.42;49.46;101768.68;1699659;82;21526;-57
2021/10/29 11:44:10;;;;;;;9.98;5.40;;;;;;;18.55;48.98;101759.91;1699132;82;21759;-58
2021/10/29 11:46:36;;;;;;;8.53;5.08;;;;;;;18.63;48.80;101765.37;1694232;82;21642;-58
2021/10/29 11:49:13;;;;;;;7.62;5.00;;;;;;;18.71;48.40;101764.65;1705965;82;21022;-58
2021/10/29 11:51:40;;;;;;;7.75;4.72;;;;;;;18.72;48.33;101765.84;1700249;82;21218;-57
2021/10/29 11:54:17;;;;;;;8.73;5.53;;;;;;;18.71;48.18;101769.52;1680335;83;21404;-58
2021/10/29 11:56:58;;;;;;;9.18;6.05;;;;;;;18.68;48.12;101760.45;1703937;82;21547;-58
2021/10/29 12:01:57;;;;;;;7.72;4.72;;;;;;;18.75;48.13;101764.73;1699888;82;21059;-57
2021/10/29 12:07:20;;;;;;;;;;;;;;;18.88;47.62;101762.63;1682794;83;21074;-57
2021/10/29 12:09:49;;;;;;;8.65;4.83;;;;;;;18.94;47.37;101758.54;1697693;82;20742;-57
2021/10/29 12:12:18;;;;;;;7.20;4.75;;;;;;;18.95;47.39;101756.23;1706071;82;21130;-56
2021/10/29 12:14:47;;;;;;;7.62;4.70;;;;;;;19.05;47.17;101753.05;1705944;82;21077;-58
2021/10/29 12:17:25;;;;;;;7.78;5.05;;;;;;;19.14;46.81;101752.66;1707261;82;21109;-57
2021/10/29 12:19:55;;;;;;;8.43;5.03;;;;;;;19.23;46.43;101757.13;1670288;83;21110;-57
2021/10/29 12:25:18;;;;;;;9.83;4.87;;;;;;;19.32;45.89;101743.40;1684005;82;21697;-57
2021/10/29 12:27:47;;;;;;;8.25;4.97;;;;;;;20.27;44.42;101747.95;1702523;82;21033;-57
2021/10/29 12:30:25;;;;;;;7.05;4.53;;;;;;;20.83;43.63;101744.59;1702312;82;21188;-57
2021/10/29 12:33:24;;;;;;;8.23;5.10;;;;;;;21.08;42.94;101742.91;1700227;82;21081;-57
2021/10/29 13:03:58;;;;;;;7.83;4.83;;;;;;;29.11;28.79;101725.37;1663013;84;21563;-60
2021/10/29 13:06:30;;;;;;;6.85;3.83;;;;;;;29.43;28.56;101727.13;1664437;82;21107;-60
2021/10/29 13:08:57;;;;;;;7.05;4.50;;;;;;;29.67;28.26;101726.60;1663979;84;21075;-59
2021/10/29 13:11:25;;;;;;;8.80;4.42;;;;;;;29.77;27.74;101724.27;1678153;82;21161;-58
2021/10/29 13:14:04;;;;;;;9.25;4.70;;;;;;;29.83;27.76;101728.30;1679857;83;21063;-59
2021/10/29 13:16:30;;;;;;;8.85;4.40;;;;;;;29.85;27.41;101725.91;1665592;84;21139;-56
2021/10/29 13:36:05;;;;;;;;;;;;;;;28.72;28.41;101723.38;1695801;82;21055;-59
2021/10/29 13:38:17;;;;;;;7.40;4.42;;;;;;;28.64;28.41;101716.83;1667922;82;21947;-58
2021/10/29 13:51:39;;;;;;;7.70;4.60;;;;;;;28.00;29.24;101721.52;1690283;82;21162;-61
2021/10/29 13:56:48;;;;;;;8.80;5.05;;;;;;;26.83;30.51;101724.98;1691684;82;21035;-62
2021/10/29 14:16:20;;;;;;;6.85;4.05;;;;;;;25.17;33.26;101728.98;1691742;82;21138;-61
2021/10/29 14:29:18;;;;;;;12.07;5.50;;;;;;;20.84;40.31;101718.67;1730811;80;21860;-60
2021/10/29 14:31:15;;;;;;;13.75;6.65;;;;;;;20.33;41.20;101716.61;1725277;80;21137;-58
2021/10/29 14:33:33;;;;;;;10.32;6.03;;;;;;;19.94;41.99;101714.27;1731060;80;20999;-60
2021/10/29 14:35:59;;;;;;;12.68;6.12;;;;;;;19.59;42.60;101713.69;1729745;80;21821;-60
2021/10/29 14:38:39;;;;;;;9.80;5.67;;;;;;;19.27;43.29;101713.65;1730058;80;22377;-60
2021/10/29 14:41:09;;;;;;;12.23;6.33;;;;;;;18.98;43.85;101714.61;1733322;80;21089;-62
2021/10/29 14:43:35;;;;;;;11.80;6.45;;;;;;;18.69;44.49;101714.16;1727054;80;21038;-61
2021/10/29 14:46:14;;;;;;;12.65;6.15;;;;;;;18.45;45.00;101712.44;1730976;80;21062;-62